Ammon, Idaho
Current Conditions -  °F | °C
As of 1:53 AM on Saturday 01 Nov 2014 (Local Time) from KIDA Reporting Station
Scattered Clouds Scattered Clouds  
Wind Chill: 42°   Ceiling: Unl
Heat Index: 42°   Visibility: 10mi
Dew Point: 30°   Wind: 3mph
Humidity: 62%   Direction: 300°WNW
Pressure: 29.76"   Gusts: NA
Location:  43.4284°N, 111.925°W
Report Text: KIDA 010753Z AUTO 30003KT 10SM SCT110 06/M01 A2976 RMK AO2 SLP051 T00561011
Loading
Personal Weather Stations






























Interactive Weather Map
Tropical Storm Tracking
New forecast layout! Learn more

10-Day Weather Forecast

Advertisements
Track Severe Weather on mobile